sensor_id;sensor_type;location;lat;lon;timestamp;pressure;altitude;pressure_sealevel;temperature;humidity
68948;BME280;55996;49.546;7.400;2024-03-29T00:00:36;-19549.13;;;3.63;100.00
68948;BME280;55996;49.546;7.400;2024-03-29T00:03:01;-19552.13;;;3.75;100.00
68948;BME280;55996;49.546;7.400;2024-03-29T00:05:27;-19553.75;;;3.81;100.00
68948;BME280;55996;49.546;7.400;2024-03-29T00:07:52;-19552.78;;;3.77;100.00
68948;BME280;55996;49.546;7.400;2024-03-29T00:10:17;-19553.47;;;3.80;100.00
68948;BME280;55996;49.546;7.400;2024-03-29T00:12:43;-19553.59;;;3.80;100.00
68948;BME280;55996;49.546;7.400;2024-03-29T00:15:08;-19554.00;;;3.82;100.00
68948;BME280;55996;49.546;7.400;2024-03-29T00:17:34;-19554.16;;;3.82;100.00
68948;BME280;55996;49.546;7.400;2024-03-29T00:19:59;-19555.50;;;3.87;100.00
68948;BME280;55996;49.546;7.400;2024-03-29T00:22:24;-19555.25;;;3.86;100.00
68948;BME280;55996;49.546;7.400;2024-03-29T00:24:50;-19555.50;;;3.87;100.00
68948;BME280;55996;49.546;7.400;2024-03-29T00:27:15;-19559.19;;;4.01;100.00
68948;BME280;55996;49.546;7.400;2024-03-29T00:29:40;-19557.53;;;3.95;100.00
68948;BME280;55996;49.546;7.400;2024-03-29T00:32:08;-19556.88;;;3.93;100.00
68948;BME280;55996;49.546;7.400;2024-03-29T00:34:33;-19560.53;;;4.07;100.00
68948;BME280;55996;49.546;7.400;2024-03-29T00:36:58;-19562.97;;;4.16;100.00
68948;BME280;55996;49.546;7.400;2024-03-29T00:39:24;-19562.16;;;4.13;100.00
68948;BME280;55996;49.546;7.400;2024-03-29T00:41:49;-19560.81;;;4.08;100.00
68948;BME280;55996;49.546;7.400;2024-03-29T00:44:14;-19562.03;;;4.12;100.00
68948;BME280;55996;49.546;7.400;2024-03-29T00:46:40;-19559.59;;;4.03;100.00
68948;BME280;55996;49.546;7.400;2024-03-29T00:49:05;-19562.44;;;4.14;100.00
68948;BME280;55996;49.546;7.400;2024-03-29T00:51:30;-19562.84;;;4.15;100.00
68948;BME280;55996;49.546;7.400;2024-03-29T00:53:56;-19564.47;;;4.22;100.00
68948;BME280;55996;49.546;7.400;2024-03-29T00:56:21;-19565.28;;;4.25;100.00
68948;BME280;55996;49.546;7.400;2024-03-29T00:58:46;-19563.38;;;4.17;100.00
68948;BME280;55996;49.546;7.400;2024-03-29T01:01:12;-19565.56;;;4.26;100.00
68948;BME280;55996;49.546;7.400;2024-03-29T01:03:37;-19565.16;;;4.24;100.00
68948;BME280;55996;49.546;7.400;2024-03-29T01:06:03;-19566.38;;;4.29;100.00
68948;BME280;55996;49.546;7.400;2024-03-29T01:08:28;-19565.97;;;4.27;100.00
68948;BME280;55996;49.546;7.400;2024-03-29T01:10:53;-19567.31;;;4.32;100.00
68948;BME280;55996;49.546;7.400;2024-03-29T01:13:19;-19567.19;;;4.32;100.00
68948;BME280;55996;49.546;7.400;2024-03-29T01:15:45;-19568.81;;;4.38;100.00
68948;BME280;55996;49.546;7.400;2024-03-29T01:18:10;-19568.25;;;4.36;100.00
68948;BME280;55996;49.546;7.400;2024-03-29T01:20:35;-19569.09;;;4.39;100.00
68948;BME280;55996;49.546;7.400;2024-03-29T01:23:01;-19567.72;;;4.34;100.00
68948;BME280;55996;49.546;7.400;2024-03-29T01:25:26;-19568.94;;;4.39;100.00
68948;BME280;55996;49.546;7.400;2024-03-29T01:27:52;-19567.03;;;4.31;100.00
68948;BME280;55996;49.546;7.400;2024-03-29T01:30:18;-19567.19;;;4.32;100.00
68948;BME280;55996;49.546;7.400;2024-03-29T01:32:44;-19563.66;;;4.18;100.00
68948;BME280;55996;49.546;7.400;2024-03-29T01:35:09;-19565.81;;;4.27;100.00
68948;BME280;55996;49.546;7.400;2024-03-29T01:37:34;-19566.50;;;4.29;100.00
68948;BME280;55996;49.546;7.400;2024-03-29T01:40:00;-19565.97;;;4.27;100.00
68948;BME280;55996;49.546;7.400;2024-03-29T01:42:25;-19569.22;;;4.40;100.00
68948;BME280;55996;49.546;7.400;2024-03-29T01:44:51;-19570.03;;;4.43;100.00
68948;BME280;55996;49.546;7.400;2024-03-29T01:47:17;-19570.56;;;4.45;100.00
68948;BME280;55996;49.546;7.400;2024-03-29T01:49:44;-19573.16;;;4.55;100.00
68948;BME280;55996;49.546;7.400;2024-03-29T01:52:12;-19571.78;;;4.49;100.00
68948;BME280;55996;49.546;7.400;2024-03-29T01:54:40;-19572.34;;;4.51;100.00
68948;BME280;55996;49.546;7.400;2024-03-29T01:57:06;-19574.38;;;4.59;100.00
68948;BME280;55996;49.546;7.400;2024-03-29T01:59:32;-19576.13;;;4.66;100.00
68948;BME280;55996;49.546;7.400;2024-03-29T02:01:58;-19575.06;;;4.62;100.00
68948;BME280;55996;49.546;7.400;2024-03-29T02:04:25;-19575.19;;;4.62;100.00
68948;BME280;55996;49.546;7.400;2024-03-29T02:06:51;-19573.97;;;4.58;100.00
68948;BME280;55996;49.546;7.400;2024-03-29T02:09:17;-19575.31;;;4.63;100.00
68948;BME280;55996;49.546;7.400;2024-03-29T02:11:42;-19577.09;;;4.69;100.00
68948;BME280;55996;49.546;7.400;2024-03-29T02:14:08;-19578.31;;;4.74;100.00
68948;BME280;55996;49.546;7.400;2024-03-29T02:16:33;-19576.13;;;4.66;100.00
68948;BME280;55996;49.546;7.400;2024-03-29T02:18:59;-19579.38;;;4.78;100.00
68948;BME280;55996;49.546;7.400;2024-03-29T02:21:24;-19574.50;;;4.60;100.00
68948;BME280;55996;49.546;7.400;2024-03-29T02:24:16;-19574.66;;;4.60;100.00
68948;BME280;55996;49.546;7.400;2024-03-29T02:26:43;-19577.34;;;4.71;100.00
68948;BME280;55996;49.546;7.400;2024-03-29T02:29:10;-19575.19;;;4.62;100.00
68948;BME280;55996;49.546;7.400;2024-03-29T02:31:35;-19579.66;;;4.79;100.00
68948;BME280;55996;49.546;7.400;2024-03-29T02:34:01;-19578.31;;;4.74;100.00
68948;BME280;55996;49.546;7.400;2024-03-29T02:36:26;-19579.25;;;4.78;100.00
68948;BME280;55996;49.546;7.400;2024-03-29T02:38:51;-19579.66;;;4.79;100.00
68948;BME280;55996;49.546;7.400;2024-03-29T02:41:18;-19581.41;;;4.86;100.00
68948;BME280;55996;49.546;7.400;2024-03-29T02:43:43;-19581.16;;;4.85;100.00
68948;BME280;55996;49.546;7.400;2024-03-29T02:46:08;-19582.50;;;4.90;100.00
68948;BME280;55996;49.546;7.400;2024-03-29T02:48:34;-19583.72;;;4.95;100.00
68948;BME280;55996;49.546;7.400;2024-03-29T02:50:59;-19583.47;;;4.94;100.00
68948;BME280;55996;49.546;7.400;2024-03-29T02:53:24;-19584.41;;;4.97;100.00
68948;BME280;55996;49.546;7.400;2024-03-29T02:55:50;-19585.50;;;5.01;100.00
68948;BME280;55996;49.546;7.400;2024-03-29T02:58:15;-19582.63;;;4.91;100.00
68948;BME280;55996;49.546;7.400;2024-03-29T03:00:41;-19585.34;;;5.01;100.00
68948;BME280;55996;49.546;7.400;2024-03-29T03:03:06;-19585.09;;;5.00;100.00
68948;BME280;55996;49.546;7.400;2024-03-29T03:05:31;-19584.28;;;4.97;100.00
68948;BME280;55996;49.546;7.400;2024-03-29T03:07:57;-19581.56;;;4.87;100.00
68948;BME280;55996;49.546;7.400;2024-03-29T03:10:47;-19586.03;;;5.04;100.00
68948;BME280;55996;49.546;7.400;2024-03-29T03:13:25;-19589.16;;;5.15;100.00
68948;BME280;55996;49.546;7.400;2024-03-29T03:15:50;-19589.56;;;5.17;100.00
68948;BME280;55996;49.546;7.400;2024-03-29T03:18:16;-19585.34;;;5.01;100.00
68948;BME280;55996;49.546;7.400;2024-03-29T03:20:41;-19588.88;;;5.14;100.00
68948;BME280;55996;49.546;7.400;2024-03-29T03:23:06;-19590.50;;;5.21;100.00
68948;BME280;55996;49.546;7.400;2024-03-29T03:25:34;-19589.97;;;5.19;100.00
68948;BME280;55996;49.546;7.400;2024-03-29T03:28:00;-19590.78;;;5.22;100.00
68948;BME280;55996;49.546;7.400;2024-03-29T03:30:25;-19588.59;;;5.13;100.00
68948;BME280;55996;49.546;7.400;2024-03-29T03:32:50;-19587.53;;;5.09;100.00
68948;BME280;55996;49.546;7.400;2024-03-29T03:35:19;-19590.91;;;5.22;100.00
68948;BME280;55996;49.546;7.400;2024-03-29T03:37:44;-19588.34;;;5.12;100.00
68948;BME280;55996;49.546;7.400;2024-03-29T03:40:13;-19587.53;;;5.09;100.00
68948;BME280;55996;49.546;7.400;2024-03-29T03:42:38;-19587.78;;;5.10;100.00
68948;BME280;55996;49.546;7.400;2024-03-29T03:45:04;-19589.41;;;5.16;100.00
68948;BME280;55996;49.546;7.400;2024-03-29T03:47:29;-19590.38;;;5.20;100.00
68948;BME280;55996;49.546;7.400;2024-03-29T03:49:55;-19591.72;;;5.25;100.00
68948;BME280;55996;49.546;7.400;2024-03-29T03:52:20;-19592.41;;;5.28;100.00
68948;BME280;55996;49.546;7.400;2024-03-29T03:54:45;-19590.78;;;5.22;100.00
68948;BME280;55996;49.546;7.400;2024-03-29T03:57:11;-19593.75;;;5.33;100.00
68948;BME280;55996;49.546;7.400;2024-03-29T03:59:36;-19592.41;;;5.28;100.00
68948;BME280;55996;49.546;7.400;2024-03-29T04:02:01;-19594.03;;;5.34;100.00
68948;BME280;55996;49.546;7.400;2024-03-29T04:04:27;-19592.41;;;5.28;100.00
68948;BME280;55996;49.546;7.400;2024-03-29T04:06:52;-19592.94;;;5.30;100.00
68948;BME280;55996;49.546;7.400;2024-03-29T04:09:18;-19592.81;;;5.29;100.00
68948;BME280;55996;49.546;7.400;2024-03-29T04:11:43;-19594.03;;;5.34;100.00
68948;BME280;55996;49.546;7.400;2024-03-29T04:14:08;-19592.66;;;5.29;100.00
68948;BME280;55996;49.546;7.400;2024-03-29T04:16:34;-19594.97;;;5.38;100.00
68948;BME280;55996;49.546;7.400;2024-03-29T04:19:00;-19595.09;;;5.38;100.00
68948;BME280;55996;49.546;7.400;2024-03-29T04:21:25;-19595.94;;;5.41;100.00
68948;BME280;55996;49.546;7.400;2024-03-29T04:23:50;-19594.97;;;5.38;100.00
68948;BME280;55996;49.546;7.400;2024-03-29T04:26:16;-19595.38;;;5.39;100.00
68948;BME280;55996;49.546;7.400;2024-03-29T04:28:41;-19595.94;;;5.41;100.00
68948;BME280;55996;49.546;7.400;2024-03-29T04:31:06;-19594.72;;;5.37;100.00
68948;BME280;55996;49.546;7.400;2024-03-29T04:33:32;-19597.00;;;5.45;100.00
68948;BME280;55996;49.546;7.400;2024-03-29T04:35:59;-19596.47;;;5.43;100.00
68948;BME280;55996;49.546;7.400;2024-03-29T04:38:26;-19595.09;;;5.38;100.00
68948;BME280;55996;49.546;7.400;2024-03-29T04:40:54;-19594.56;;;5.36;100.00
68948;BME280;55996;49.546;7.400;2024-03-29T04:43:27;-19595.25;;;5.39;100.00
68948;BME280;55996;49.546;7.400;2024-03-29T04:46:10;-19595.78;;;5.41;100.00
68948;BME280;55996;49.546;7.400;2024-03-29T04:48:42;-19596.59;;;5.44;100.00
68948;BME280;55996;49.546;7.400;2024-03-29T04:51:09;-19598.38;;;5.50;100.00
68948;BME280;55996;49.546;7.400;2024-03-29T04:53:38;-19597.81;;;5.48;100.00
68948;BME280;55996;49.546;7.400;2024-03-29T04:56:04;-19598.91;;;5.53;100.00
68948;BME280;55996;49.546;7.400;2024-03-29T04:58:30;-19598.22;;;5.50;100.00
68948;BME280;55996;49.546;7.400;2024-03-29T05:00:56;-19598.38;;;5.50;100.00
68948;BME280;55996;49.546;7.400;2024-03-29T05:03:22;-19596.75;;;5.44;100.00
68948;BME280;55996;49.546;7.400;2024-03-29T05:05:50;-19596.47;;;5.43;100.00
68948;BME280;55996;49.546;7.400;2024-03-29T05:08:15;-19598.50;;;5.51;100.00
68948;BME280;55996;49.546;7.400;2024-03-29T05:10:41;-19597.97;;;5.49;100.00
68948;BME280;55996;49.546;7.400;2024-03-29T05:13:06;-19600.25;;;5.58;100.00
68948;BME280;55996;49.546;7.400;2024-03-29T05:15:32;-19599.44;;;5.55;100.00
68948;BME280;55996;49.546;7.400;2024-03-29T05:17:58;-19598.38;;;5.50;100.00
68948;BME280;55996;49.546;7.400;2024-03-29T05:20:23;-19601.47;;;5.62;100.00
68948;BME280;55996;49.546;7.400;2024-03-29T05:22:49;-19602.69;;;5.67;100.00
68948;BME280;55996;49.546;7.400;2024-03-29T05:25:14;-19604.88;;;5.75;100.00
68948;BME280;55996;49.546;7.400;2024-03-29T05:27:40;-19607.31;;;5.85;100.00
68948;BME280;55996;49.546;7.400;2024-03-29T05:30:05;-19607.03;;;5.84;100.00
68948;BME280;55996;49.546;7.400;2024-03-29T05:32:31;-19605.13;;;5.76;100.00
68948;BME280;55996;49.546;7.400;2024-03-29T05:34:57;-19602.28;;;5.65;100.00
68948;BME280;55996;49.546;7.400;2024-03-29T05:37:23;-19601.22;;;5.61;100.00
68948;BME280;55996;49.546;7.400;2024-03-29T05:39:51;-19603.91;;;5.72;100.00
68948;BME280;55996;49.546;7.400;2024-03-29T05:42:27;-19602.56;;;5.66;100.00
68948;BME280;55996;49.546;7.400;2024-03-29T05:44:53;-19604.31;;;5.73;100.00
68948;BME280;55996;49.546;7.400;2024-03-29T05:47:19;-19606.34;;;5.81;100.00
68948;BME280;55996;49.546;7.400;2024-03-29T05:49:44;-19606.22;;;5.80;100.00
68948;BME280;55996;49.546;7.400;2024-03-29T05:52:10;-19605.94;;;5.79;100.00
68948;BME280;55996;49.546;7.400;2024-03-29T05:54:37;-19607.56;;;5.86;100.00
68948;BME280;55996;49.546;7.400;2024-03-29T05:57:03;-19606.22;;;5.80;100.00
68948;BME280;55996;49.546;7.400;2024-03-29T05:59:28;-19607.97;;;5.87;100.00
68948;BME280;55996;49.546;7.400;2024-03-29T06:01:54;-19608.66;;;5.90;100.00
68948;BME280;55996;49.546;7.400;2024-03-29T06:04:20;-19609.19;;;5.92;100.00
68948;BME280;55996;49.546;7.400;2024-03-29T06:06:54;-19609.19;;;5.92;100.00
68948;BME280;55996;49.546;7.400;2024-03-29T06:09:19;-19610.81;;;5.98;100.00
68948;BME280;55996;49.546;7.400;2024-03-29T06:11:45;-19612.06;;;6.03;100.00
68948;BME280;55996;49.546;7.400;2024-03-29T06:14:10;-19611.38;;;6.00;100.00
68948;BME280;55996;49.546;7.400;2024-03-29T06:16:36;-19613.13;;;6.07;100.00
68948;BME280;55996;49.546;7.400;2024-03-29T06:19:20;-19615.44;;;6.16;100.00
68948;BME280;55996;49.546;7.400;2024-03-29T06:21:45;-19615.03;;;6.14;100.00
68948;BME280;55996;49.546;7.400;2024-03-29T06:24:11;-19615.84;;;6.17;100.00
68948;BME280;55996;49.546;7.400;2024-03-29T06:26:41;-19618.53;;;6.27;100.00
68948;BME280;55996;49.546;7.400;2024-03-29T06:29:07;-19621.00;;;6.37;100.00
68948;BME280;55996;49.546;7.400;2024-03-29T06:31:35;-19618.97;;;6.29;100.00
68948;BME280;55996;49.546;7.400;2024-03-29T06:34:00;-19621.25;;;6.38;100.00
68948;BME280;55996;49.546;7.400;2024-03-29T06:36:26;-19622.47;;;6.42;100.00
68948;BME280;55996;49.546;7.400;2024-03-29T06:38:52;-19625.47;;;6.54;100.00
68948;BME280;55996;49.546;7.400;2024-03-29T06:41:17;-19621.66;;;6.39;100.00
68948;BME280;55996;49.546;7.400;2024-03-29T06:43:43;-19622.22;;;6.41;100.00
68948;BME280;55996;49.546;7.400;2024-03-29T06:46:10;-19622.34;;;6.42;100.00
68948;BME280;55996;49.546;7.400;2024-03-29T06:48:59;-19626.13;;;6.56;100.00
68948;BME280;55996;49.546;7.400;2024-03-29T06:51:30;-19618.97;;;6.29;100.00
68948;BME280;55996;49.546;7.400;2024-03-29T06:53:55;-19621.94;;;6.40;100.00
68948;BME280;55996;49.546;7.400;2024-03-29T06:56:21;-19624.91;;;6.52;100.00
68948;BME280;55996;49.546;7.400;2024-03-29T06:58:46;-19623.69;;;6.47;100.00
68948;BME280;55996;49.546;7.400;2024-03-29T07:01:12;-19628.84;;;6.67;100.00
68948;BME280;55996;49.546;7.400;2024-03-29T07:03:37;-19629.50;;;6.69;100.00
68948;BME280;55996;49.546;7.400;2024-03-29T07:06:03;-19628.44;;;6.65;100.00
68948;BME280;55996;49.546;7.400;2024-03-29T07:08:28;-19633.03;;;6.83;100.00
68948;BME280;55996;49.546;7.400;2024-03-29T07:11:00;-19631.69;;;6.77;100.00
68948;BME280;55996;49.546;7.400;2024-03-29T07:13:28;-19632.75;;;6.82;100.00
68948;BME280;55996;49.546;7.400;2024-03-29T07:15:54;-19633.56;;;6.85;100.00
68948;BME280;55996;49.546;7.400;2024-03-29T07:18:19;-19632.75;;;6.82;100.00
68948;BME280;55996;49.546;7.400;2024-03-29T07:20:44;-19638.56;;;7.04;100.00
68948;BME280;55996;49.546;7.400;2024-03-29T07:23:10;-19638.84;;;7.05;100.00
68948;BME280;55996;49.546;7.400;2024-03-29T07:25:36;-19641.56;;;7.15;100.00
68948;BME280;55996;49.546;7.400;2024-03-29T07:28:02;-19642.63;;;7.19;100.00
68948;BME280;55996;49.546;7.400;2024-03-29T07:30:27;-19642.38;;;7.18;100.00
68948;BME280;55996;49.546;7.400;2024-03-29T07:32:53;-19642.38;;;7.18;100.00
68948;BME280;55996;49.546;7.400;2024-03-29T07:35:18;-19643.72;;;7.23;100.00
68948;BME280;55996;49.546;7.400;2024-03-29T07:37:44;-19645.88;;;7.32;100.00
68948;BME280;55996;49.546;7.400;2024-03-29T07:40:13;-19648.19;;;7.40;100.00
68948;BME280;55996;49.546;7.400;2024-03-29T07:42:38;-19648.84;;;7.43;100.00
68948;BME280;55996;49.546;7.400;2024-03-29T07:45:04;-19652.09;;;7.55;100.00
68948;BME280;55996;49.546;7.400;2024-03-29T07:47:29;-19655.22;;;7.67;100.00
68948;BME280;55996;49.546;7.400;2024-03-29T07:49:55;-19657.09;;;7.74;100.00
68948;BME280;55996;49.546;7.400;2024-03-29T07:52:20;-19658.44;;;7.80;100.00
68948;BME280;55996;49.546;7.400;2024-03-29T07:54:47;-19659.66;;;7.84;100.00
68948;BME280;55996;49.546;7.400;2024-03-29T07:57:12;-19660.88;;;7.89;100.00
68948;BME280;55996;49.546;7.400;2024-03-29T07:59:40;-19663.31;;;7.98;100.00
68948;BME280;55996;49.546;7.400;2024-03-29T08:02:08;-19664.66;;;8.03;100.00
68948;BME280;55996;49.546;7.400;2024-03-29T08:04:35;-19664.66;;;8.03;100.00
68948;BME280;55996;49.546;7.400;2024-03-29T08:07:00;-19664.94;;;8.04;100.00
68948;BME280;55996;49.546;7.400;2024-03-29T08:09:26;-19664.41;;;8.02;100.00
68948;BME280;55996;49.546;7.400;2024-03-29T08:11:51;-19664.41;;;8.02;100.00
68948;BME280;55996;49.546;7.400;2024-03-29T08:14:16;-19663.84;;;8.00;100.00
68948;BME280;55996;49.546;7.400;2024-03-29T08:16:42;-19664.53;;;8.03;100.00
68948;BME280;55996;49.546;7.400;2024-03-29T08:19:08;-19665.88;;;8.08;100.00
68948;BME280;55996;49.546;7.400;2024-03-29T08:21:34;-19668.72;;;8.19;100.00
68948;BME280;55996;49.546;7.400;2024-03-29T08:23:59;-19669.00;;;8.20;100.00
68948;BME280;55996;49.546;7.400;2024-03-29T08:26:26;-19669.25;;;8.21;100.00
68948;BME280;55996;49.546;7.400;2024-03-29T08:28:53;-19669.41;;;8.21;100.00
68948;BME280;55996;49.546;7.400;2024-03-29T08:31:19;-19669.81;;;8.23;100.00
68948;BME280;55996;49.546;7.400;2024-03-29T08:33:44;-19670.88;;;8.27;100.00
68948;BME280;55996;49.546;7.400;2024-03-29T08:36:09;-19672.09;;;8.32;100.00
68948;BME280;55996;49.546;7.400;2024-03-29T08:38:37;-19671.44;;;8.29;100.00
68948;BME280;55996;49.546;7.400;2024-03-29T08:41:06;-19670.88;;;8.27;100.00
68948;BME280;55996;49.546;7.400;2024-03-29T08:43:31;-19674.81;;;8.42;100.00
68948;BME280;55996;49.546;7.400;2024-03-29T08:45:57;-19675.06;;;8.43;100.00
68948;BME280;55996;49.546;7.400;2024-03-29T08:48:23;-19676.56;;;8.49;100.00
68948;BME280;55996;49.546;7.400;2024-03-29T08:50:49;-19677.78;;;8.53;100.00
68948;BME280;55996;49.546;7.400;2024-03-29T08:53:15;-19679.53;;;8.60;100.00
68948;BME280;55996;49.546;7.400;2024-03-29T08:55:40;-19682.91;;;8.73;100.00
68948;BME280;55996;49.546;7.400;2024-03-29T08:58:06;-19684.25;;;8.78;100.00
68948;BME280;55996;49.546;7.400;2024-03-29T09:00:31;-19681.16;;;8.66;100.00
68948;BME280;55996;49.546;7.400;2024-03-29T09:02:57;-19683.72;;;8.76;100.00
68948;BME280;55996;49.546;7.400;2024-03-29T09:05:23;-19685.47;;;8.83;100.00
68948;BME280;55996;49.546;7.400;2024-03-29T09:07:49;-19688.19;;;8.93;100.00
68948;BME280;55996;49.546;7.400;2024-03-29T09:10:15;-19688.03;;;8.93;100.00
68948;BME280;55996;49.546;7.400;2024-03-29T09:12:41;-19691.00;;;9.04;100.00
68948;BME280;55996;49.546;7.400;2024-03-29T09:15:07;-19691.69;;;9.07;100.00
68948;BME280;55996;49.546;7.400;2024-03-29T09:17:38;-19692.75;;;9.11;100.00
68948;BME280;55996;49.546;7.400;2024-03-29T09:20:05;-19696.13;;;9.24;100.00
68948;BME280;55996;49.546;7.400;2024-03-29T09:22:30;-19696.41;;;9.25;100.00
68948;BME280;55996;49.546;7.400;2024-03-29T09:24:55;-19693.84;;;9.15;100.00
68948;BME280;55996;49.546;7.400;2024-03-29T09:27:21;-19696.00;;;9.23;100.00
68948;BME280;55996;49.546;7.400;2024-03-29T09:29:49;-19696.28;;;9.24;100.00
68948;BME280;55996;49.546;7.400;2024-03-29T09:32:15;-19699.66;;;9.37;100.00
68948;BME280;55996;49.546;7.400;2024-03-29T09:34:45;-19702.06;;;9.46;100.00
68948;BME280;55996;49.546;7.400;2024-03-29T09:37:10;-19701.94;;;9.46;100.00
68948;BME280;55996;49.546;7.400;2024-03-29T09:39:36;-19703.97;;;9.53;100.00
68948;BME280;55996;49.546;7.400;2024-03-29T09:42:06;-19706.66;;;9.64;100.00
68948;BME280;55996;49.546;7.400;2024-03-29T09:44:33;-19705.56;;;9.60;100.00
68948;BME280;55996;49.546;7.400;2024-03-29T09:47:04;-19712.59;;;9.87;100.00
68948;BME280;55996;49.546;7.400;2024-03-29T09:49:32;-19712.72;;;9.87;100.00
68948;BME280;55996;49.546;7.400;2024-03-29T09:52:01;-19713.00;;;9.88;100.00
68948;BME280;55996;49.546;7.400;2024-03-29T09:54:28;-19713.94;;;9.92;100.00
68948;BME280;55996;49.546;7.400;2024-03-29T09:56:55;-19716.50;;;10.01;100.00
68948;BME280;55996;49.546;7.400;2024-03-29T09:59:22;-19718.78;;;10.10;100.00
68948;BME280;55996;49.546;7.400;2024-03-29T10:01:48;-19720.13;;;10.15;100.00
68948;BME280;55996;49.546;7.400;2024-03-29T10:04:15;-19722.69;;;10.25;100.00
68948;BME280;55996;49.546;7.400;2024-03-29T10:06:44;-19725.66;;;10.37;100.00
68948;BME280;55996;49.546;7.400;2024-03-29T10:09:10;-19727.28;;;10.43;100.00
68948;BME280;55996;49.546;7.400;2024-03-29T10:11:36;-19727.00;;;10.42;100.00
68948;BME280;55996;49.546;7.400;2024-03-29T10:14:01;-19727.44;;;10.43;100.00
68948;BME280;55996;49.546;7.400;2024-03-29T10:16:30;-19731.34;;;10.58;100.00
68948;BME280;55996;49.546;7.400;2024-03-29T10:18:58;-19737.78;;;10.83;100.00
68948;BME280;55996;49.546;7.400;2024-03-29T10:21:27;-19741.97;;;10.99;100.00
68948;BME280;55996;49.546;7.400;2024-03-29T10:23:53;-19746.00;;;11.14;100.00
68948;BME280;55996;49.546;7.400;2024-03-29T10:26:18;-19746.16;;;11.15;100.00
68948;BME280;55996;49.546;7.400;2024-03-29T10:28:45;-19750.31;;;11.31;100.00
68948;BME280;55996;49.546;7.400;2024-03-29T10:31:11;-19753.94;;;11.45;100.00
68948;BME280;55996;49.546;7.400;2024-03-29T10:33:39;-19751.00;;;11.34;100.00
68948;BME280;55996;49.546;7.400;2024-03-29T10:36:07;-19755.03;;;11.49;100.00
68948;BME280;55996;49.546;7.400;2024-03-29T10:38:35;-19751.53;;;11.36;100.00
68948;BME280;55996;49.546;7.400;2024-03-29T10:41:01;-19751.78;;;11.37;100.00
68948;BME280;55996;49.546;7.400;2024-03-29T10:43:28;-19745.59;;;11.13;100.00
68948;BME280;55996;49.546;7.400;2024-03-29T10:45:55;-19746.53;;;11.17;100.00
68948;BME280;55996;49.546;7.400;2024-03-29T10:48:26;-19742.38;;;11.01;100.00
68948;BME280;55996;49.546;7.400;2024-03-29T10:50:56;-19745.88;;;11.14;100.00
68948;BME280;55996;49.546;7.400;2024-03-29T10:53:23;-19743.19;;;11.04;100.00
68948;BME280;55996;49.546;7.400;2024-03-29T10:55:58;-19742.09;;;11.00;100.00
68948;BME280;55996;49.546;7.400;2024-03-29T10:58:29;-19739.13;;;10.88;100.00
68948;BME280;55996;49.546;7.400;2024-03-29T11:00:57;-19737.53;;;10.82;100.00
68948;BME280;55996;49.546;7.400;2024-03-29T11:03:37;-19740.50;;;10.93;100.00
68948;BME280;55996;49.546;7.400;2024-03-29T11:06:05;-19741.03;;;10.95;100.00
68948;BME280;55996;49.546;7.400;2024-03-29T11:08:34;-19742.78;;;11.02;100.00
68948;BME280;55996;49.546;7.400;2024-03-29T11:11:04;-19746.81;;;11.18;100.00
68948;BME280;55996;49.546;7.400;2024-03-29T11:14:06;-19748.84;;;11.25;100.00
68948;BME280;55996;49.546;7.400;2024-03-29T11:16:33;-19750.31;;;11.31;100.00
68948;BME280;55996;49.546;7.400;2024-03-29T11:18:59;-19751.66;;;11.36;100.00
68948;BME280;55996;49.546;7.400;2024-03-29T11:21:27;-19752.34;;;11.39;100.00
68948;BME280;55996;49.546;7.400;2024-03-29T11:23:53;-19751.66;;;11.36;100.00
68948;BME280;55996;49.546;7.400;2024-03-29T11:26:20;-19748.97;;;11.26;100.00
68948;BME280;55996;49.546;7.400;2024-03-29T11:28:52;-19746.00;;;11.14;100.00
68948;BME280;55996;49.546;7.400;2024-03-29T11:31:22;-19743.84;;;11.06;100.00
68948;BME280;55996;49.546;7.400;2024-03-29T11:33:49;-19739.41;;;10.89;100.00
68948;BME280;55996;49.546;7.400;2024-03-29T11:36:20;-19738.34;;;10.85;100.00
68948;BME280;55996;49.546;7.400;2024-03-29T11:38:51;-19738.06;;;10.84;100.00
68948;BME280;55996;49.546;7.400;2024-03-29T11:41:21;-19736.72;;;10.79;100.00
68948;BME280;55996;49.546;7.400;2024-03-29T11:43:50;-19740.34;;;10.93;100.00
68948;BME280;55996;49.546;7.400;2024-03-29T11:46:17;-19741.03;;;10.95;100.00
68948;BME280;55996;49.546;7.400;2024-03-29T11:48:43;-19741.03;;;10.95;100.00
68948;BME280;55996;49.546;7.400;2024-03-29T11:51:12;-19741.16;;;10.96;100.00
68948;BME280;55996;49.546;7.400;2024-03-29T11:53:40;-19738.34;;;10.85;100.00
68948;BME280;55996;49.546;7.400;2024-03-29T11:56:05;-19737.78;;;10.83;100.00
68948;BME280;55996;49.546;7.400;2024-03-29T11:58:33;-19740.88;;;10.95;100.00
68948;BME280;55996;49.546;7.400;2024-03-29T12:00:59;-19742.66;;;11.02;100.00
68948;BME280;55996;49.546;7.400;2024-03-29T12:03:26;-19740.09;;;10.92;100.00
68948;BME280;55996;49.546;7.400;2024-03-29T12:05:53;-19743.19;;;11.04;100.00
68948;BME280;55996;49.546;7.400;2024-03-29T12:08:33;-19744.66;;;11.09;100.00
68948;BME280;55996;49.546;7.400;2024-03-29T12:11:00;-19745.47;;;11.12;100.00
68948;BME280;55996;49.546;7.400;2024-03-29T12:13:26;-19747.50;;;11.20;100.00
68948;BME280;55996;49.546;7.400;2024-03-29T12:15:51;-19749.38;;;11.27;100.00
68948;BME280;55996;49.546;7.400;2024-03-29T12:18:19;-19748.03;;;11.22;100.00
68948;BME280;55996;49.546;7.400;2024-03-29T12:20:45;-19749.38;;;11.27;100.00
68948;BME280;55996;49.546;7.400;2024-03-29T12:23:13;-19745.19;;;11.11;100.00
68948;BME280;55996;49.546;7.400;2024-03-29T12:25:39;-19743.72;;;11.06;100.00
68948;BME280;55996;49.546;7.400;2024-03-29T12:28:05;-19746.69;;;11.17;100.00
68948;BME280;55996;49.546;7.400;2024-03-29T12:30:33;-19747.63;;;11.21;100.00
68948;BME280;55996;49.546;7.400;2024-03-29T12:33:03;-19748.28;;;11.23;100.00
68948;BME280;55996;49.546;7.400;2024-03-29T12:35:30;-19752.06;;;11.38;100.00
68948;BME280;55996;49.546;7.400;2024-03-29T12:37:59;-19755.97;;;11.53;100.00
68948;BME280;55996;49.546;7.400;2024-03-29T12:40:26;-19760.81;;;11.71;100.00
68948;BME280;55996;49.546;7.400;2024-03-29T12:42:52;-19760.94;;;11.72;100.00
68948;BME280;55996;49.546;7.400;2024-03-29T12:45:18;-19762.97;;;11.79;100.00